English version
lugares datos climáticos artículos

datos de Mairena del Aljarafe, Sevilla, España
Año Mes Dia Mostrar

  Fecha       hora        Temp.ext.    Hum.ext.  Dir.Viento   Vel.Viento  Presion al NM   T.int. Prec.hoy 

   14-11-2019    20:40      12.2º(-4.4)     67%      270 (W)      8.0 km/h    1010.4 hpa     23.3º    0.0 mm
   14-11-2019    20:35      12.3º(-4.4)     66%      270 (W)      8.0 km/h    1010.5 hpa     23.3º    0.0 mm
   14-11-2019    20:30      12.3º(-4.6)     66%      270 (W)      8.0 km/h    1010.3 hpa     23.3º    0.0 mm
   14-11-2019    20:25      12.3º(-4.8)     66%      270 (W)      6.4 km/h    1010.4 hpa     23.2º    0.0 mm
   14-11-2019    20:20      12.3º(-5.0)     66%      270 (W)      6.4 km/h    1010.3 hpa     23.2º    0.0 mm
   14-11-2019    20:15      12.4º(-5.2)     65%      270 (W)      8.0 km/h    1010.3 hpa     23.2º    0.0 mm
   14-11-2019    20:10      12.4º(-5.4)     65%      270 (W)      8.0 km/h    1010.1 hpa     23.2º    0.0 mm
   14-11-2019    20:05      12.4º(-5.7)     65%      270 (W)      6.4 km/h    1010.1 hpa     23.2º    0.0 mm
   14-11-2019    20:00      12.4º(-6.0)     65%      270 (W)      8.0 km/h    1010.1 hpa     23.2º    0.0 mm
   14-11-2019    19:55      12.4º(-6.2)     65%      270 (W)      6.4 km/h    1010.2 hpa     23.2º    0.0 mm
   14-11-2019    19:50      12.4º(-6.3)     65%      292 (W)      4.8 km/h    1010.2 hpa     23.2º    0.0 mm
   14-11-2019    19:45      12.4º(-6.3)     65%      292 (W)      3.2 km/h    1010.2 hpa     23.2º    0.0 mm
   14-11-2019    19:40      12.4º(-6.3)     65%      270 (W)      6.4 km/h    1010.3 hpa     23.2º    0.0 mm
   14-11-2019    19:35      12.4º(-6.4)     66%      270 (W)      4.8 km/h    1010.4 hpa     23.2º    0.0 mm
   14-11-2019    19:30      12.4º(-6.4)     66%      270 (W)      6.4 km/h    1010.5 hpa     23.2º    0.0 mm
   14-11-2019    19:25      12.5º(-6.3)     66%      270 (W)      8.0 km/h    1010.4 hpa     23.2º    0.0 mm
   14-11-2019    19:20      12.6º(-6.2)     66%      270 (W)      8.0 km/h    1010.3 hpa     23.2º    0.0 mm
   14-11-2019    19:15      12.7º(-6.2)     65%      270 (W)      6.4 km/h    1010.3 hpa     23.2º    0.0 mm
   14-11-2019    19:10      12.8º(-6.1)     64%      270 (W)      6.4 km/h    1010.2 hpa     23.2º    0.0 mm
   14-11-2019    19:05      12.9º(-6.2)     64%      270 (W)      8.0 km/h    1010.2 hpa     23.2º    0.0 mm
   14-11-2019    19:00      13.0º(-6.2)     63%      270 (W)      8.0 km/h    1010.2 hpa     23.2º    0.0 mm
   14-11-2019    18:55      13.2º(-6.1)     62%      270 (W)      6.4 km/h    1010.0 hpa     23.2º    0.0 mm
   14-11-2019    18:50      13.3º(-6.3)     62%      270 (W)      6.4 km/h    1010.0 hpa     23.2º    0.0 mm
   14-11-2019    18:45      13.4º(-6.3)     62%      270 (W)      8.0 km/h    1009.9 hpa     23.2º    0.0 mm
   14-11-2019    18:40      13.5º(-6.3)     61%      270 (W)     11.3 km/h    1009.7 hpa     23.2º    0.0 mm
   14-11-2019    18:35      13.6º(-6.4)     61%      270 (W)     11.3 km/h    1009.9 hpa     23.2º    0.0 mm
   14-11-2019    18:30      13.7º(-6.4)     60%      270 (W)      8.0 km/h    1010.0 hpa     23.2º    0.0 mm
   14-11-2019    18:25      13.7º(-6.6)     60%      270 (W)      9.7 km/h    1009.9 hpa     23.2º    0.0 mm
   14-11-2019    18:20      13.8º(-6.6)     59%      270 (W)      9.7 km/h    1009.8 hpa     23.2º    0.0 mm
   14-11-2019    18:15      13.9º(-6.7)     59%      270 (W)      9.7 km/h    1009.8 hpa     23.2º    0.0 mm
   14-11-2019    18:10      14.1º(-6.6)     58%      270 (W)     11.3 km/h    1009.7 hpa     23.2º    0.0 mm
   14-11-2019    18:05      14.2º(-6.6)     58%      270 (W)      9.7 km/h    1009.7 hpa     23.2º    0.0 mm
   14-11-2019    18:00      14.3º(-6.7)     57%      270 (W)      9.7 km/h    1009.7 hpa     23.2º    0.0 mm
   14-11-2019    17:55      14.5º(-6.6)     56%      270 (W)     11.3 km/h    1009.8 hpa     23.2º    0.0 mm
   14-11-2019    17:50      14.6º(-6.7)     56%      270 (W)     16.1 km/h    1009.8 hpa     23.2º    0.0 mm
   14-11-2019    17:45      14.7º(-6.6)     56%      270 (W)     14.5 km/h    1009.9 hpa     23.3º    0.0 mm
   14-11-2019    17:40      14.8º(-6.5)     56%      270 (W)     16.1 km/h    1010.0 hpa     23.3º    0.0 mm
   14-11-2019    17:35      14.9º(-6.5)     57%      270 (W)     11.3 km/h    1010.0 hpa     23.3º    0.0 mm
   14-11-2019    17:30      14.9º(-6.4)     56%      270 (W)      9.7 km/h    1009.9 hpa     23.3º    0.0 mm
   14-11-2019    17:25      14.9º(-6.5)     55%      270 (W)      9.7 km/h    1009.8 hpa     23.3º    0.0 mm
   14-11-2019    17:20      15.0º(-6.4)     55%      315(NW)      9.7 km/h    1009.7 hpa     23.3º    0.0 mm
   14-11-2019    17:15      14.9º(-6.6)     57%      270 (W)      8.0 km/h    1009.5 hpa     23.2º    0.0 mm
   14-11-2019    17:10      14.9º(-6.7)     57%      270 (W)      9.7 km/h    1009.5 hpa     23.2º    0.0 mm
   14-11-2019    17:05      14.8º(-6.9)     57%      270 (W)      9.7 km/h    1009.4 hpa     23.2º    0.0 mm
   14-11-2019    17:00      14.8º(-6.9)     57%      270 (W)     11.3 km/h    1009.3 hpa     23.1º    0.0 mm
   14-11-2019    16:55      14.8º(-6.9)     57%      270 (W)     12.9 km/h    1009.2 hpa     23.1º    0.0 mm
   14-11-2019    16:50      14.7º(-7.1)     57%      270 (W)     16.1 km/h    1009.2 hpa     23.1º    0.0 mm
   14-11-2019    16:45      14.7º(-7.1)     57%      270 (W)     11.3 km/h    1009.2 hpa     23.1º    0.0 mm
   14-11-2019    16:40      14.5º(-7.3)     57%      270 (W)     12.9 km/h    1009.2 hpa     23.1º    0.0 mm
   14-11-2019    16:35      14.4º(-7.3)     57%      270 (W)     17.7 km/h    1009.2 hpa     23.1º    0.0 mm
   14-11-2019    16:30      14.4º(-7.4)     56%      315(NW)     11.3 km/h    1009.2 hpa     23.1º    0.0 mm
   14-11-2019    16:25      14.3º(-7.5)     56%      292 (W)     12.9 km/h    1009.1 hpa     23.1º    0.0 mm
   14-11-2019    16:20      14.3º(-7.3)     56%      270 (W)     14.5 km/h    1009.2 hpa     22.9º    0.0 mm
   14-11-2019    16:15      14.3º(-7.2)     56%      270 (W)     16.1 km/h    1009.2 hpa     22.9º    0.0 mm
   14-11-2019    16:10      14.3º(-7.1)     58%      270 (W)     14.5 km/h    1009.1 hpa     22.9º    0.0 mm
   14-11-2019    16:05      14.4º(-7.0)     58%      270 (W)     12.9 km/h    1009.2 hpa     22.9º    0.0 mm
   14-11-2019    16:00      14.4º(-7.0)     58%      292 (W)      8.0 km/h    1009.4 hpa     22.9º    0.0 mm
   14-11-2019    15:55      14.4º(-7.2)     59%      337(NW)      6.4 km/h    1009.5 hpa     22.8º    0.0 mm
   14-11-2019    15:50      14.2º(-7.4)     59%      337(NW)      8.0 km/h    1009.6 hpa     22.8º    0.0 mm
   14-11-2019    15:45      14.0º(-7.4)     57%      337(NW)     11.3 km/h    1009.7 hpa     22.8º    0.0 mm
   14-11-2019    15:40      14.3º(-7.0)     56%      337(NW)      9.7 km/h    1009.8 hpa     22.8º    0.0 mm
   14-11-2019    15:35      14.7º(-6.6)     54%      000 (N)     12.9 km/h    1009.8 hpa     22.8º    0.0 mm
   14-11-2019    15:30      15.1º(-6.3)     55%      337(NW)     11.3 km/h    1009.7 hpa     22.8º    0.0 mm
   14-11-2019    15:25      14.9º(-6.4)     56%      315(NW)     12.9 km/h    1009.4 hpa     22.7º    0.0 mm
   14-11-2019    15:20      14.8º(-6.5)     59%      315(NW)      9.7 km/h    1009.4 hpa     22.6º    0.0 mm
   14-11-2019    15:15      14.7º(-6.4)     60%      337(NW)      9.7 km/h    1009.4 hpa     22.4º    0.0 mm
   14-11-2019    15:10      14.7º(-6.4)     61%      270 (W)      9.7 km/h    1009.5 hpa     22.4º    0.0 mm
   14-11-2019    15:05      14.7º(-6.2)     61%      270 (W)      9.7 km/h    1009.5 hpa     22.4º    0.0 mm
   14-11-2019    15:00      14.7º(-6.1)     61%      315(NW)      8.0 km/h    1009.6 hpa     22.3º    0.0 mm
   14-11-2019    14:55      14.6º(-6.2)     62%      270 (W)      9.7 km/h    1009.8 hpa     22.3º    0.0 mm
   14-11-2019    14:50      14.5º(-6.2)     62%      270 (W)      9.7 km/h    1009.7 hpa     22.3º    0.0 mm
   14-11-2019    14:45      14.5º(-5.9)     62%      270 (W)      8.0 km/h    1009.8 hpa     22.2º    0.0 mm
   14-11-2019    14:40      14.4º(-5.9)     63%      270 (W)      9.7 km/h    1009.9 hpa     22.1º    0.0 mm
   14-11-2019    14:35      14.3º(-5.9)     63%      270 (W)      8.0 km/h    1010.0 hpa     22.1º    0.0 mm
   14-11-2019    14:30      14.3º(-5.8)     63%      315(NW)      9.7 km/h    1010.0 hpa     22.0º    0.0 mm
   14-11-2019    14:25      14.3º(-5.6)     63%      292 (W)     11.3 km/h    1010.1 hpa     22.0º    0.0 mm
   14-11-2019    14:20      14.3º(-5.5)     63%      337(NW)     11.3 km/h    1010.1 hpa     22.0º    0.0 mm
   14-11-2019    14:15      14.3º(-5.2)     64%      337(NW)     12.9 km/h    1010.2 hpa     22.0º    0.0 mm
   14-11-2019    14:10      14.3º(-4.9)     63%      315(NW)     14.5 km/h    1010.2 hpa     22.0º    0.0 mm
   14-11-2019    14:05      14.3º(-4.7)     65%      337(NW)     14.5 km/h    1010.3 hpa     22.0º    0.0 mm
   14-11-2019    14:00      14.2º(-4.7)     66%      337(NW)     11.3 km/h    1010.1 hpa     22.0º    0.0 mm
   14-11-2019    13:55      14.4º(-4.4)     67%      000 (N)     14.5 km/h    1010.2 hpa     22.0º    0.0 mm
   14-11-2019    13:50      14.6º(-4.0)     66%      337(NW)     14.5 km/h    1010.3 hpa     22.0º    0.0 mm
   14-11-2019    13:45      14.6º(-4.0)     69%      292 (W)     11.3 km/h    1010.4 hpa     22.0º    0.0 mm
   14-11-2019    13:40      14.4º(-4.1)     73%      315(NW)      9.7 km/h    1010.6 hpa     22.0º    0.0 mm
   14-11-2019    13:35      14.2º(-4.4)     74%      315(NW)     11.3 km/h    1010.5 hpa     22.0º    0.0 mm
   14-11-2019    13:30      14.0º(-4.7)     77%      337(NW)     11.3 km/h    1010.6 hpa     22.0º    0.0 mm
   14-11-2019    13:25      13.8º(-5.0)     79%      337(NW)      9.7 km/h    1010.6 hpa     22.0º    0.0 mm
   14-11-2019    13:20      13.9º(-5.0)     79%      315(NW)      9.7 km/h    1010.8 hpa     22.0º    0.0 mm
   14-11-2019    13:15      14.0º(-4.8)     78%      315(NW)     12.9 km/h    1010.7 hpa     22.0º    0.0 mm
   14-11-2019    13:10      14.3º(-4.5)     77%      315(NW)     11.3 km/h    1010.8 hpa     22.0º    0.0 mm
   14-11-2019    13:05      14.5º(-4.5)     76%      270 (W)     12.9 km/h    1010.7 hpa     22.1º    0.0 mm
   14-11-2019    13:00      14.6º(-4.4)     75%      270 (W)     14.5 km/h    1010.4 hpa     22.1º    0.0 mm
   14-11-2019    12:55      14.7º(-4.2)     75%      270 (W)     12.9 km/h    1010.4 hpa     22.1º    0.0 mm
   14-11-2019    12:50      14.6º(-4.2)     76%      270 (W)     14.5 km/h    1010.6 hpa     22.1º    0.0 mm
   14-11-2019    12:45      14.4º(-4.3)     78%      270 (W)     11.3 km/h    1010.6 hpa     22.1º    0.0 mm
   14-11-2019    12:40      14.3º(-4.1)     78%      270 (W)     12.9 km/h    1010.7 hpa     22.1º    0.0 mm
   14-11-2019    12:35      14.4º(-3.8)     79%      270 (W)     16.1 km/h    1010.7 hpa     22.1º    0.0 mm
   14-11-2019    12:30      14.4º(-3.5)     79%      270 (W)     16.1 km/h    1010.8 hpa     22.1º    0.0 mm
   14-11-2019    12:25      14.3º(-3.5)     81%      270 (W)     12.9 km/h    1010.9 hpa     22.1º    0.0 mm
   14-11-2019    12:20      14.3º(-3.5)     82%      270 (W)     12.9 km/h    1010.8 hpa     22.2º    0.0 mm
   14-11-2019    12:15      14.3º(-3.5)     82%      270 (W)     11.3 km/h    1011.2 hpa     22.2º    0.0 mm
   14-11-2019    12:10      14.5º(-3.2)     80%      270 (W)     17.7 km/h    1011.1 hpa     22.2º    0.0 mm
   14-11-2019    12:05      14.7º(-2.9)     79%      270 (W)     14.5 km/h    1011.1 hpa     22.2º    0.0 mm
   14-11-2019    12:00      14.6º(-3.0)     79%      270 (W)     12.9 km/h    1011.2 hpa     22.2º    0.0 mm
   14-11-2019    11:55      14.6º(-3.0)     79%      270 (W)     14.5 km/h    1011.1 hpa     22.2º    0.0 mm
   14-11-2019    11:50      14.4º(-3.2)     80%      270 (W)     16.1 km/h    1011.1 hpa     22.2º    0.0 mm
   14-11-2019    11:45      14.3º(-3.4)     81%      270 (W)     14.5 km/h    1011.2 hpa     22.3º    0.0 mm
   14-11-2019    11:40      14.2º(-3.5)     81%      270 (W)     16.1 km/h    1011.2 hpa     22.3º    0.0 mm
   14-11-2019    11:35      14.2º(-3.5)     80%      270 (W)     17.7 km/h    1011.2 hpa     22.3º    0.0 mm
   14-11-2019    11:30      14.3º(-3.3)     80%      270 (W)     17.7 km/h    1011.2 hpa     22.3º    0.0 mm
   14-11-2019    11:25      14.3º(-3.1)     79%      270 (W)     17.7 km/h    1011.3 hpa     22.3º    0.0 mm
   14-11-2019    11:20      14.3º(-3.0)     79%      270 (W)     12.9 km/h    1011.4 hpa     22.3º    0.0 mm
   14-11-2019    11:15      14.3º(-3.1)     79%      270 (W)     14.5 km/h    1011.4 hpa     22.3º    0.0 mm
   14-11-2019    11:10      14.4º(-2.9)     78%      270 (W)     14.5 km/h    1011.4 hpa     22.4º    0.0 mm
   14-11-2019    11:05      14.4º(-2.8)     78%      270 (W)     14.5 km/h    1011.5 hpa     22.4º    0.0 mm
   14-11-2019    11:00      14.4º(-2.6)     78%      270 (W)     16.1 km/h    1011.5 hpa     22.4º    0.0 mm
   14-11-2019    10:55      14.3º(-2.6)     79%      270 (W)     14.5 km/h    1011.6 hpa     22.4º    0.0 mm
   14-11-2019    10:50      14.3º(-2.5)     79%      270 (W)     17.7 km/h    1011.6 hpa     22.4º    0.0 mm
   14-11-2019    10:45      14.3º(-2.4)     79%      270 (W)     17.7 km/h    1011.5 hpa     22.4º    0.0 mm
   14-11-2019    10:40      14.2º(-2.4)     80%      270 (W)     16.1 km/h    1011.5 hpa     22.4º    0.0 mm
   14-11-2019    10:35      14.2º(-2.4)     80%      270 (W)     14.5 km/h    1011.7 hpa     22.4º    0.0 mm
   14-11-2019    10:30      14.0º(-2.6)     81%      270 (W)     12.9 km/h    1011.7 hpa     22.4º    0.0 mm
   14-11-2019    10:25      13.9º(-2.5)     82%      270 (W)     12.9 km/h    1011.8 hpa     22.6º    0.0 mm
   14-11-2019    10:20      13.8º(-2.6)     83%      270 (W)     14.5 km/h    1011.8 hpa     22.6º    0.0 mm
   14-11-2019    10:15      13.7º(-2.6)     83%      270 (W)     16.1 km/h    1011.8 hpa     22.6º    0.0 mm
   14-11-2019    10:10      13.6º(-2.7)     84%      270 (W)     14.5 km/h    1011.7 hpa     22.6º    0.0 mm
   14-11-2019    10:05      13.4º(-2.7)     85%      270 (W)     12.9 km/h    1011.8 hpa     22.7º    0.0 mm
   14-11-2019    10:00      13.2º(-2.7)     87%      270 (W)      9.7 km/h    1011.8 hpa     22.7º    0.0 mm
   14-11-2019    09:55      12.8º(-2.9)     88%      270 (W)      9.7 km/h    1011.8 hpa     22.7º    0.0 mm
   14-11-2019    09:50      12.6º(-2.8)     89%      270 (W)      8.0 km/h    1011.9 hpa     22.7º    0.0 mm
   14-11-2019    09:45      12.3º(-3.0)     90%      270 (W)      8.0 km/h    1012.0 hpa     22.8º    0.0 mm
   14-11-2019    09:40      12.1º(-3.0)     91%      270 (W)      6.4 km/h    1012.1 hpa     22.8º    0.0 mm
   14-11-2019    09:35      11.8º(-3.1)     91%      247(SW)      4.8 km/h    1012.0 hpa     22.8º    0.0 mm
   14-11-2019    09:30      11.6º(-3.2)     91%      225(SW)      1.6 km/h    1011.9 hpa     22.8º    0.0 mm
   14-11-2019    09:25      11.4º(-3.2)     91%      225(SW)      1.6 km/h    1012.2 hpa     22.8º    0.0 mm
   14-11-2019    09:20      11.2º(-3.2)     91%      202 (S)      1.6 km/h    1012.1 hpa     22.9º    0.0 mm
   14-11-2019    09:15      11.1º(-3.2)     91%      225(SW)      1.6 km/h    1012.4 hpa     22.9º    0.0 mm
   14-11-2019    09:10      10.9º(-3.3)     91%      225(SW)      1.6 km/h    1012.3 hpa     23.1º    0.0 mm
   14-11-2019    09:05      10.8º(-3.4)     91%      225(SW)      1.6 km/h    1012.4 hpa     23.1º    0.0 mm
   14-11-2019    09:00      10.8º(-3.3)     91%      225(SW)      1.6 km/h    1012.3 hpa     23.1º    0.0 mm
   14-11-2019    08:55      10.7º(-3.4)     91%         -         0.0 km/h    1012.3 hpa     23.1º    0.0 mm
   14-11-2019    08:50      10.7º(----)     91%      225(SW)      1.6 km/h    1012.2 hpa     23.1º    0.0 mm
   14-11-2019    08:45      10.6º(----)     91%      247(SW)      1.6 km/h    1012.2 hpa     23.1º    0.0 mm
   14-11-2019    08:40      10.6º(----)     91%      247(SW)      1.6 km/h    1012.3 hpa     23.1º    0.0 mm
   14-11-2019    08:35      10.4º(----)     91%      270 (W)      1.6 km/h    1012.4 hpa     23.1º    0.0 mm
   14-11-2019    08:30      10.3º(----)     91%      270 (W)      1.6 km/h    1012.3 hpa     23.1º    0.0 mm
   14-11-2019    08:25      10.3º(----)     91%         -         0.0 km/h    1012.4 hpa     23.1º    0.0 mm
   14-11-2019    08:20      10.2º(----)      -%         -          -  km/h    1012.3 hpa     22.9º    0.0 mm
   14-11-2019    08:15        - º(----)      -%         -          -  km/h    1012.1 hpa     22.9º    0.0 mm
   14-11-2019    08:10        - º(----)      -%         -          -  km/h    1012.5 hpa     22.9º    0.0 mm
   14-11-2019    08:05        - º(----)      -%         -          -  km/h    1012.5 hpa     23.1º    0.0 mm
   14-11-2019    08:00        - º(----)      -%         -          -  km/h    1012.4 hpa     22.8º    0.0 mm
   14-11-2019    07:55        - º(----)      -%         -          -  km/h    1012.4 hpa     22.8º    0.0 mm
   14-11-2019    07:50        - º(----)      -%         -          -  km/h    1012.5 hpa     22.8º    0.0 mm
   14-11-2019    07:45        - º(----)      -%         -          -  km/h    1012.5 hpa     22.8º    0.0 mm
   14-11-2019    07:40        - º(----)      -%         -          -  km/h    1012.7 hpa     22.8º    0.0 mm
   14-11-2019    07:35        - º(----)      -%         -          -  km/h    1012.7 hpa     22.8º    0.0 mm
   14-11-2019    07:30        - º(----)      -%         -          -  km/h    1012.7 hpa     22.8º    0.0 mm
   14-11-2019    07:25        - º(----)      -%         -          -  km/h    1012.7 hpa     22.7º    0.0 mm
   14-11-2019    07:20        - º(----)      -%         -          -  km/h    1012.8 hpa     22.6º    0.0 mm
   14-11-2019    07:15        - º(----)      -%         -          -  km/h    1013.0 hpa     22.6º    0.0 mm
   14-11-2019    07:10        - º(----)      -%         -          -  km/h    1013.1 hpa     22.4º    0.0 mm
   14-11-2019    07:05        - º(----)      -%         -          -  km/h    1013.1 hpa     22.4º    0.0 mm
   14-11-2019    07:00        - º(----)      -%         -          -  km/h    1013.2 hpa     22.4º    0.0 mm
   14-11-2019    06:55        - º(----)      -%         -          -  km/h    1013.3 hpa     22.4º    0.0 mm
   14-11-2019    06:50        - º(----)      -%         -          -  km/h    1013.4 hpa     22.3º    0.0 mm
   14-11-2019    06:45        - º(----)      -%         -          -  km/h    1013.3 hpa     22.3º    0.0 mm
   14-11-2019    06:40        - º(----)      -%         -          -  km/h    1013.3 hpa     22.4º    0.0 mm
   14-11-2019    06:35        - º(----)      -%         -          -  km/h    1013.2 hpa     22.1º    0.0 mm
   14-11-2019    06:30        - º(----)      -%         -          -  km/h    1013.2 hpa     22.1º    0.0 mm
   14-11-2019    06:25        - º(----)      -%         -          -  km/h    1013.2 hpa     22.1º    0.0 mm
   14-11-2019    06:20        - º(----)      -%         -          -  km/h    1013.1 hpa     22.1º    0.0 mm
   14-11-2019    06:15        - º(----)      -%         -          -  km/h    1013.2 hpa     22.1º    0.0 mm
   14-11-2019    06:10        - º(----)      -%         -          -  km/h    1013.1 hpa     22.2º    0.0 mm
   14-11-2019    06:05        - º(----)      -%         -          -  km/h    1013.3 hpa     22.4º    0.0 mm
   14-11-2019    06:00       9.9º(-4.3)     90%      202 (S)      4.8 km/h    1013.2 hpa     22.3º    0.0 mm
   14-11-2019    05:55       9.9º(-4.3)     90%      247(SW)      4.8 km/h    1013.3 hpa     22.1º    0.0 mm
   14-11-2019    05:50      10.0º(-4.2)     89%      270 (W)      4.8 km/h    1013.3 hpa     22.1º    0.0 mm
   14-11-2019    05:45      10.0º(-4.2)     89%      247(SW)      4.8 km/h    1013.3 hpa     22.1º    0.0 mm
   14-11-2019    05:40      10.1º(-4.0)     88%      247(SW)      3.2 km/h    1013.3 hpa     22.1º    0.0 mm
   14-11-2019    05:35      10.2º(-3.9)     88%      247(SW)      1.6 km/h    1013.3 hpa     22.1º    0.0 mm
   14-11-2019    05:30      10.3º(-3.8)     88%      270 (W)      1.6 km/h    1013.1 hpa     22.1º    0.0 mm
   14-11-2019    05:25      10.3º(-3.7)     88%      270 (W)      1.6 km/h    1013.3 hpa     22.1º    0.0 mm
   14-11-2019    05:20      10.3º(-3.7)     87%      247(SW)      1.6 km/h    1013.2 hpa     22.2º    0.0 mm
   14-11-2019    05:15      10.4º(-3.5)     88%      270 (W)      3.2 km/h    1013.4 hpa     22.2º    0.0 mm
   14-11-2019    05:10      10.5º(-3.4)     87%      270 (W)      1.6 km/h    1013.3 hpa     22.2º    0.0 mm
   14-11-2019    05:05      10.6º(-3.3)     87%      270 (W)      4.8 km/h    1013.4 hpa     22.2º    0.0 mm
   14-11-2019    05:00      10.7º(-3.2)     87%      270 (W)      3.2 km/h    1013.5 hpa     22.2º    0.0 mm
   14-11-2019    04:55      10.7º(-3.2)     87%      270 (W)      3.2 km/h    1013.7 hpa     22.2º    0.0 mm
   14-11-2019    04:50      10.7º(-3.2)     87%      270 (W)      3.2 km/h    1013.7 hpa     22.2º    0.0 mm
   14-11-2019    04:45      10.7º(-3.2)     87%      270 (W)      3.2 km/h    1013.8 hpa     22.3º    0.0 mm
   14-11-2019    04:40      10.8º(-3.1)     86%      292 (W)      3.2 km/h    1013.8 hpa     22.3º    0.0 mm
   14-11-2019    04:35      10.9º(-3.0)     86%      270 (W)      4.8 km/h    1013.7 hpa     22.3º    0.0 mm
   14-11-2019    04:30      10.9º(-3.0)     86%      270 (W)      4.8 km/h    1013.7 hpa     22.3º    0.0 mm
   14-11-2019    04:25      11.0º(-2.8)     86%      270 (W)      4.8 km/h    1013.8 hpa     22.3º    0.0 mm
   14-11-2019    04:20      11.0º(-2.8)     86%      270 (W)      3.2 km/h    1013.8 hpa     22.3º    0.0 mm
   14-11-2019    04:15      11.1º(-2.6)     86%      270 (W)      3.2 km/h    1013.7 hpa     22.3º    0.0 mm
   14-11-2019    04:10      11.1º(-2.6)     86%      270 (W)      3.2 km/h    1013.7 hpa     22.4º    0.0 mm
   14-11-2019    04:05      11.2º(-2.5)     86%      270 (W)      3.2 km/h    1013.8 hpa     22.4º    0.0 mm
   14-11-2019    04:00      11.3º(-2.4)     86%      270 (W)      1.6 km/h    1013.9 hpa     22.4º    0.0 mm
   14-11-2019    03:55      11.4º(-2.3)     86%      270 (W)      3.2 km/h    1013.8 hpa     22.4º    0.0 mm
   14-11-2019    03:50      11.4º(-2.3)     86%      270 (W)      1.6 km/h    1013.8 hpa     22.4º    0.0 mm
   14-11-2019    03:45      11.6º(-2.1)     86%      270 (W)      1.6 km/h    1013.8 hpa     22.4º    0.0 mm
   14-11-2019    03:40      11.7º(-2.0)     86%         -         0.0 km/h    1014.0 hpa     22.4º    0.0 mm
   14-11-2019    03:35      11.8º(-1.9)     85%      337(NW)      1.6 km/h    1014.1 hpa     22.4º    0.0 mm
   14-11-2019    03:30      12.0º(-1.7)     86%         -         0.0 km/h    1014.4 hpa     22.4º    0.0 mm
   14-11-2019    03:25      12.1º(-1.6)     86%         -         0.0 km/h    1014.4 hpa     22.4º    0.0 mm
   14-11-2019    03:20      12.2º(-1.5)     86%         -         0.0 km/h    1014.3 hpa     22.4º    0.0 mm
   14-11-2019    03:15      12.3º(-1.4)     86%      270 (W)      1.6 km/h    1014.3 hpa     22.4º    0.0 mm
   14-11-2019    03:10      12.4º(-1.2)     86%      270 (W)      1.6 km/h    1014.2 hpa     22.4º    0.0 mm
   14-11-2019    03:05      12.5º(-1.1)     86%      270 (W)      1.6 km/h    1014.2 hpa     22.4º    0.0 mm
   14-11-2019    03:00      12.6º(-0.9)     86%      292 (W)      1.6 km/h    1014.6 hpa     22.4º    0.0 mm
   14-11-2019    02:55      12.7º(-0.7)     85%      270 (W)      1.6 km/h    1014.8 hpa     22.4º    0.0 mm
   14-11-2019    02:50      12.7º(-0.6)     85%      270 (W)      1.6 km/h    1014.8 hpa     22.4º    0.0 mm
   14-11-2019    02:45      12.8º(-0.4)     85%      270 (W)      1.6 km/h    1014.6 hpa     22.6º    0.0 mm
   14-11-2019    02:40      12.9º(-0.3)     85%      315(NW)      1.6 km/h    1014.7 hpa     22.6º    0.0 mm
   14-11-2019    02:35      13.0º(-0.2)     84%      337(NW)      1.6 km/h    1014.9 hpa     22.6º    0.0 mm
   14-11-2019    02:30      13.1º(-0.1)     84%         -         0.0 km/h    1014.6 hpa     22.6º    0.0 mm
   14-11-2019    02:25      13.2º(+0.0)     84%      292 (W)      3.2 km/h    1014.4 hpa     22.6º    0.0 mm
   14-11-2019    02:20      13.3º(+0.1)     84%      270 (W)      3.2 km/h    1014.5 hpa     22.6º    0.0 mm
   14-11-2019    02:15      13.3º(+0.1)     83%      270 (W)      3.2 km/h    1014.7 hpa     22.7º    0.0 mm
   14-11-2019    02:10      13.4º(+0.1)     83%      270 (W)      4.8 km/h    1014.6 hpa     22.7º    0.0 mm
   14-11-2019    02:05      13.6º(+0.3)     83%      270 (W)      4.8 km/h    1014.5 hpa     22.7º    0.0 mm
   14-11-2019    02:00      13.6º(+0.2)     83%      270 (W)      3.2 km/h    1014.6 hpa     22.7º    0.0 mm
   14-11-2019    01:55      13.6º(+0.1)     83%      270 (W)      4.8 km/h    1014.8 hpa     22.7º    0.0 mm
   14-11-2019    01:50      13.7º(+0.1)     84%      270 (W)      6.4 km/h    1014.9 hpa     22.8º    0.0 mm
   14-11-2019    01:45      13.7º(-0.0)     84%      270 (W)      4.8 km/h    1014.9 hpa     22.8º    0.0 mm
   14-11-2019    01:40      13.8º(+0.0)     84%      270 (W)      4.8 km/h    1015.0 hpa     22.8º    0.0 mm
   14-11-2019    01:35      13.8º(-0.1)     85%      270 (W)      4.8 km/h    1015.1 hpa     22.8º    0.0 mm
   14-11-2019    01:30      13.9º(-0.2)     85%      270 (W)      4.8 km/h    1015.0 hpa     22.8º    0.0 mm
   14-11-2019    01:25      14.0º(-0.2)     84%      270 (W)      3.2 km/h    1015.0 hpa     22.8º    0.0 mm
   14-11-2019    01:20      14.1º(-0.2)     84%      270 (W)      3.2 km/h    1014.9 hpa     22.8º    0.0 mm
   14-11-2019    01:15      14.2º(-0.2)     84%      292 (W)      4.8 km/h    1014.9 hpa     22.8º    0.0 mm
   14-11-2019    01:10      14.2º(-0.2)     84%      270 (W)      4.8 km/h    1015.0 hpa     22.8º    0.0 mm
   14-11-2019    01:05      14.2º(-0.2)     84%      270 (W)      4.8 km/h    1015.0 hpa     22.8º    0.0 mm
   14-11-2019    01:00      14.2º(-0.2)     84%      292 (W)      4.8 km/h    1015.1 hpa     22.8º    0.0 mm
   14-11-2019    00:55      14.1º(----)     84%      270 (W)      4.8 km/h    1015.1 hpa     22.8º    0.0 mm
   14-11-2019    00:50      14.1º(----)     84%      270 (W)      6.4 km/h    1014.9 hpa     22.9º    0.0 mm
   14-11-2019    00:45      14.0º(----)     84%      270 (W)      6.4 km/h    1015.1 hpa     22.9º    0.0 mm
   14-11-2019    00:40      13.9º(----)     84%      292 (W)      3.2 km/h    1015.4 hpa     22.9º    0.0 mm
   14-11-2019    00:35      13.8º(----)     84%      270 (W)      3.2 km/h    1015.4 hpa     22.9º    0.0 mm
   14-11-2019    00:30      13.8º(----)     84%      270 (W)      3.2 km/h    1015.1 hpa     22.9º    0.0 mm
   14-11-2019    00:25      13.8º(----)     84%      270 (W)      4.8 km/h    1015.2 hpa     23.1º    0.0 mm
   14-11-2019    00:20      13.7º(----)     84%      270 (W)      6.4 km/h    1015.3 hpa     23.1º    0.0 mm
   14-11-2019    00:15      13.6º(----)     84%      270 (W)      8.0 km/h    1015.3 hpa     23.1º    0.0 mm
   14-11-2019    00:10      13.4º(----)     84%      270 (W)      6.4 km/h    1015.3 hpa     23.1º    0.0 mm
   14-11-2019    00:05      13.4º(----)     83%      270 (W)      4.8 km/h    1015.3 hpa     23.1º    0.0 mm
   14-11-2019    00:00      13.4º(----)     83%      270 (W)      6.4 km/h    1015.4 hpa     23.1º    0.0 mm